sensor_id;sensor_type;location;lat;lon;timestamp;temperature;humidity
33207;DHT22;19565;46.602;11.534;2023-05-07T00:01:51;16.80;99.90
33207;DHT22;19565;46.602;11.534;2023-05-07T00:04:19;16.80;99.90
33207;DHT22;19565;46.602;11.534;2023-05-07T00:06:49;16.70;99.90
33207;DHT22;19565;46.602;11.534;2023-05-07T00:09:17;16.80;99.90
33207;DHT22;19565;46.602;11.534;2023-05-07T00:11:45;16.90;99.90
33207;DHT22;19565;46.602;11.534;2023-05-07T00:14:13;16.90;99.90
33207;DHT22;19565;46.602;11.534;2023-05-07T00:16:41;17.00;99.90
33207;DHT22;19565;46.602;11.534;2023-05-07T00:19:09;17.00;99.90
33207;DHT22;19565;46.602;11.534;2023-05-07T00:21:37;17.00;99.90
33207;DHT22;19565;46.602;11.534;2023-05-07T00:24:07;17.00;99.90
33207;DHT22;19565;46.602;11.534;2023-05-07T00:26:35;16.90;99.90
33207;DHT22;19565;46.602;11.534;2023-05-07T00:29:03;16.90;99.90
33207;DHT22;19565;46.602;11.534;2023-05-07T00:31:31;16.80;99.90
33207;DHT22;19565;46.602;11.534;2023-05-07T00:33:59;16.80;99.90
33207;DHT22;19565;46.602;11.534;2023-05-07T00:36:27;16.90;99.90
33207;DHT22;19565;46.602;11.534;2023-05-07T00:38:58;16.80;99.90
33207;DHT22;19565;46.602;11.534;2023-05-07T00:41:28;16.80;99.90
33207;DHT22;19565;46.602;11.534;2023-05-07T00:43:57;16.80;99.90
33207;DHT22;19565;46.602;11.534;2023-05-07T00:46:25;16.80;99.90
33207;DHT22;19565;46.602;11.534;2023-05-07T00:48:53;16.80;99.90
33207;DHT22;19565;46.602;11.534;2023-05-07T00:51:22;16.80;99.90
33207;DHT22;19565;46.602;11.534;2023-05-07T00:53:50;16.80;99.90
33207;DHT22;19565;46.602;11.534;2023-05-07T00:56:19;16.70;99.90
33207;DHT22;19565;46.602;11.534;2023-05-07T00:58:48;16.70;99.90
33207;DHT22;19565;46.602;11.534;2023-05-07T01:01:17;16.70;99.90
33207;DHT22;19565;46.602;11.534;2023-05-07T01:03:45;16.70;99.90
33207;DHT22;19565;46.602;11.534;2023-05-07T01:06:14;16.70;99.90
33207;DHT22;19565;46.602;11.534;2023-05-07T01:08:44;16.70;99.90
33207;DHT22;19565;46.602;11.534;2023-05-07T01:11:12;16.70;99.90
33207;DHT22;19565;46.602;11.534;2023-05-07T01:13:41;16.60;99.90
33207;DHT22;19565;46.602;11.534;2023-05-07T01:16:11;16.60;99.90
33207;DHT22;19565;46.602;11.534;2023-05-07T01:18:39;16.60;99.90
33207;DHT22;19565;46.602;11.534;2023-05-07T01:21:08;16.60;99.90
33207;DHT22;19565;46.602;11.534;2023-05-07T01:23:39;16.60;99.90
33207;DHT22;19565;46.602;11.534;2023-05-07T01:26:08;16.40;99.90
33207;DHT22;19565;46.602;11.534;2023-05-07T01:28:36;16.50;99.90
33207;DHT22;19565;46.602;11.534;2023-05-07T01:31:04;16.60;99.90
33207;DHT22;19565;46.602;11.534;2023-05-07T01:33:34;16.60;99.90
33207;DHT22;19565;46.602;11.534;2023-05-07T01:36:05;16.60;99.90
33207;DHT22;19565;46.602;11.534;2023-05-07T01:38:36;16.60;99.90
33207;DHT22;19565;46.602;11.534;2023-05-07T01:41:06;16.50;99.90
33207;DHT22;19565;46.602;11.534;2023-05-07T01:43:35;16.50;99.90
33207;DHT22;19565;46.602;11.534;2023-05-07T01:46:03;16.50;99.90
33207;DHT22;19565;46.602;11.534;2023-05-07T01:48:32;16.50;99.90
33207;DHT22;19565;46.602;11.534;2023-05-07T01:51:01;16.50;99.90
33207;DHT22;19565;46.602;11.534;2023-05-07T01:53:35;16.50;99.90
33207;DHT22;19565;46.602;11.534;2023-05-07T01:56:06;16.50;99.90
33207;DHT22;19565;46.602;11.534;2023-05-07T01:58:34;16.50;99.90
33207;DHT22;19565;46.602;11.534;2023-05-07T02:01:02;16.40;99.90
33207;DHT22;19565;46.602;11.534;2023-05-07T02:03:30;16.50;99.90
33207;DHT22;19565;46.602;11.534;2023-05-07T02:05:58;16.50;99.90
33207;DHT22;19565;46.602;11.534;2023-05-07T02:08:26;16.50;99.90
33207;DHT22;19565;46.602;11.534;2023-05-07T02:10:54;16.50;99.90
33207;DHT22;19565;46.602;11.534;2023-05-07T02:13:24;16.40;99.90
33207;DHT22;19565;46.602;11.534;2023-05-07T02:15:52;16.40;99.90
33207;DHT22;19565;46.602;11.534;2023-05-07T02:18:20;16.40;99.90
33207;DHT22;19565;46.602;11.534;2023-05-07T02:20:48;16.40;99.90
33207;DHT22;19565;46.602;11.534;2023-05-07T02:23:16;16.40;99.90
33207;DHT22;19565;46.602;11.534;2023-05-07T02:25:44;16.40;99.90
33207;DHT22;19565;46.602;11.534;2023-05-07T02:28:12;16.40;99.90
33207;DHT22;19565;46.602;11.534;2023-05-07T02:30:42;16.40;99.90
33207;DHT22;19565;46.602;11.534;2023-05-07T02:33:10;16.40;99.90
33207;DHT22;19565;46.602;11.534;2023-05-07T02:35:39;16.40;99.90
33207;DHT22;19565;46.602;11.534;2023-05-07T02:38:07;16.30;99.90
33207;DHT22;19565;46.602;11.534;2023-05-07T02:40:37;16.10;99.90
33207;DHT22;19565;46.602;11.534;2023-05-07T02:43:06;15.80;99.90
33207;DHT22;19565;46.602;11.534;2023-05-07T02:45:34;15.90;99.90
33207;DHT22;19565;46.602;11.534;2023-05-07T02:48:05;16.00;99.90
33207;DHT22;19565;46.602;11.534;2023-05-07T02:50:33;16.10;99.90
33207;DHT22;19565;46.602;11.534;2023-05-07T02:53:01;16.20;99.90
33207;DHT22;19565;46.602;11.534;2023-05-07T02:55:29;16.30;99.90
33207;DHT22;19565;46.602;11.534;2023-05-07T02:57:58;16.30;99.90
33207;DHT22;19565;46.602;11.534;2023-05-07T03:00:26;16.30;99.90
33207;DHT22;19565;46.602;11.534;2023-05-07T03:02:53;16.00;99.90
33207;DHT22;19565;46.602;11.534;2023-05-07T03:05:24;15.90;99.90
33207;DHT22;19565;46.602;11.534;2023-05-07T03:07:52;15.50;99.90
33207;DHT22;19565;46.602;11.534;2023-05-07T03:10:20;15.20;99.90
33207;DHT22;19565;46.602;11.534;2023-05-07T03:12:48;15.20;99.90
33207;DHT22;19565;46.602;11.534;2023-05-07T03:15:16;15.20;99.90
33207;DHT22;19565;46.602;11.534;2023-05-07T03:17:44;15.20;99.90
33207;DHT22;19565;46.602;11.534;2023-05-07T03:20:12;15.20;99.90
33207;DHT22;19565;46.602;11.534;2023-05-07T03:22:42;15.30;99.90
33207;DHT22;19565;46.602;11.534;2023-05-07T03:25:10;15.30;99.90
33207;DHT22;19565;46.602;11.534;2023-05-07T03:27:38;15.40;99.90
33207;DHT22;19565;46.602;11.534;2023-05-07T03:30:09;15.60;99.90
33207;DHT22;19565;46.602;11.534;2023-05-07T03:32:38;15.70;99.90
33207;DHT22;19565;46.602;11.534;2023-05-07T03:35:06;15.50;99.90
33207;DHT22;19565;46.602;11.534;2023-05-07T03:37:38;15.30;99.90
33207;DHT22;19565;46.602;11.534;2023-05-07T03:40:08;15.40;99.90
33207;DHT22;19565;46.602;11.534;2023-05-07T03:42:38;15.60;99.90
33207;DHT22;19565;46.602;11.534;2023-05-07T03:45:07;15.70;99.90
33207;DHT22;19565;46.602;11.534;2023-05-07T03:47:35;15.80;99.90
33207;DHT22;19565;46.602;11.534;2023-05-07T03:50:04;15.90;99.90
33207;DHT22;19565;46.602;11.534;2023-05-07T03:52:32;15.90;99.90
33207;DHT22;19565;46.602;11.534;2023-05-07T03:55:00;16.00;99.90
33207;DHT22;19565;46.602;11.534;2023-05-07T03:57:30;16.00;99.90
33207;DHT22;19565;46.602;11.534;2023-05-07T03:59:58;16.00;99.90
33207;DHT22;19565;46.602;11.534;2023-05-07T04:02:26;15.90;99.90
33207;DHT22;19565;46.602;11.534;2023-05-07T04:04:54;15.90;99.90
33207;DHT22;19565;46.602;11.534;2023-05-07T04:07:22;15.90;99.90
33207;DHT22;19565;46.602;11.534;2023-05-07T04:09:50;16.00;99.90
33207;DHT22;19565;46.602;11.534;2023-05-07T04:12:18;16.00;99.90
33207;DHT22;19565;46.602;11.534;2023-05-07T04:14:48;16.10;99.90
33207;DHT22;19565;46.602;11.534;2023-05-07T04:17:16;16.20;99.90
33207;DHT22;19565;46.602;11.534;2023-05-07T04:19:44;16.20;99.90
33207;DHT22;19565;46.602;11.534;2023-05-07T04:22:12;16.30;99.90
33207;DHT22;19565;46.602;11.534;2023-05-07T04:24:40;16.30;99.90
33207;DHT22;19565;46.602;11.534;2023-05-07T04:27:08;16.30;99.90
33207;DHT22;19565;46.602;11.534;2023-05-07T04:29:36;16.30;99.90
33207;DHT22;19565;46.602;11.534;2023-05-07T04:32:06;16.30;99.90
33207;DHT22;19565;46.602;11.534;2023-05-07T04:34:34;16.40;99.90
33207;DHT22;19565;46.602;11.534;2023-05-07T04:37:02;16.30;99.90
33207;DHT22;19565;46.602;11.534;2023-05-07T04:39:30;16.30;99.90
33207;DHT22;19565;46.602;11.534;2023-05-07T04:42:02;16.30;99.90
33207;DHT22;19565;46.602;11.534;2023-05-07T04:44:30;16.30;99.90
33207;DHT22;19565;46.602;11.534;2023-05-07T04:46:58;16.40;99.90
33207;DHT22;19565;46.602;11.534;2023-05-07T04:49:28;16.40;99.90
33207;DHT22;19565;46.602;11.534;2023-05-07T04:51:58;16.40;99.90
33207;DHT22;19565;46.602;11.534;2023-05-07T04:54:26;16.40;99.90
33207;DHT22;19565;46.602;11.534;2023-05-07T04:56:54;16.40;99.90
33207;DHT22;19565;46.602;11.534;2023-05-07T04:59:22;16.40;99.90
33207;DHT22;19565;46.602;11.534;2023-05-07T05:01:50;16.40;99.90
33207;DHT22;19565;46.602;11.534;2023-05-07T05:04:18;16.40;99.90
33207;DHT22;19565;46.602;11.534;2023-05-07T05:06:47;16.30;99.90
33207;DHT22;19565;46.602;11.534;2023-05-07T05:09:15;16.30;99.90
33207;DHT22;19565;46.602;11.534;2023-05-07T05:11:44;16.30;99.90
33207;DHT22;19565;46.602;11.534;2023-05-07T05:14:12;16.30;99.90
33207;DHT22;19565;46.602;11.534;2023-05-07T05:16:40;16.30;99.90
33207;DHT22;19565;46.602;11.534;2023-05-07T05:19:08;16.40;99.90
33207;DHT22;19565;46.602;11.534;2023-05-07T05:21:36;16.40;99.90
33207;DHT22;19565;46.602;11.534;2023-05-07T05:24:06;16.40;99.90
33207;DHT22;19565;46.602;11.534;2023-05-07T05:26:34;16.40;99.90
33207;DHT22;19565;46.602;11.534;2023-05-07T05:29:02;16.40;99.90
33207;DHT22;19565;46.602;11.534;2023-05-07T05:31:30;16.40;99.90
33207;DHT22;19565;46.602;11.534;2023-05-07T05:33:58;16.40;99.90
33207;DHT22;19565;46.602;11.534;2023-05-07T05:36:26;16.40;99.90
33207;DHT22;19565;46.602;11.534;2023-05-07T05:38:55;16.40;99.90
33207;DHT22;19565;46.602;11.534;2023-05-07T05:41:24;16.40;99.90
33207;DHT22;19565;46.602;11.534;2023-05-07T05:43:52;16.50;99.90
33207;DHT22;19565;46.602;11.534;2023-05-07T05:46:20;16.50;99.90
33207;DHT22;19565;46.602;11.534;2023-05-07T05:48:48;16.40;99.90
33207;DHT22;19565;46.602;11.534;2023-05-07T05:51:16;16.50;99.90
33207;DHT22;19565;46.602;11.534;2023-05-07T05:53:44;16.50;99.90
33207;DHT22;19565;46.602;11.534;2023-05-07T05:56:12;16.50;99.90
33207;DHT22;19565;46.602;11.534;2023-05-07T05:58:42;16.50;99.90
33207;DHT22;19565;46.602;11.534;2023-05-07T06:01:10;16.50;99.90
33207;DHT22;19565;46.602;11.534;2023-05-07T06:03:38;16.50;99.90
33207;DHT22;19565;46.602;11.534;2023-05-07T06:06:06;16.50;99.90
33207;DHT22;19565;46.602;11.534;2023-05-07T06:08:34;16.50;99.90
33207;DHT22;19565;46.602;11.534;2023-05-07T06:11:02;16.50;99.90
33207;DHT22;19565;46.602;11.534;2023-05-07T06:13:30;16.50;99.90
33207;DHT22;19565;46.602;11.534;2023-05-07T06:16:01;16.50;99.90
33207;DHT22;19565;46.602;11.534;2023-05-07T06:18:29;16.50;99.90
33207;DHT22;19565;46.602;11.534;2023-05-07T06:20:57;16.50;99.90
33207;DHT22;19565;46.602;11.534;2023-05-07T06:23:25;16.60;99.90
33207;DHT22;19565;46.602;11.534;2023-05-07T06:25:53;16.60;99.90
33207;DHT22;19565;46.602;11.534;2023-05-07T06:28:21;16.60;99.90
33207;DHT22;19565;46.602;11.534;2023-05-07T06:30:49;16.60;99.90
33207;DHT22;19565;46.602;11.534;2023-05-07T06:33:19;16.70;99.90
33207;DHT22;19565;46.602;11.534;2023-05-07T06:35:47;16.60;99.90
33207;DHT22;19565;46.602;11.534;2023-05-07T06:38:15;16.50;99.90
33207;DHT22;19565;46.602;11.534;2023-05-07T06:40:44;16.50;99.90
33207;DHT22;19565;46.602;11.534;2023-05-07T06:43:15;16.60;99.90
33207;DHT22;19565;46.602;11.534;2023-05-07T06:45:43;16.50;99.90
33207;DHT22;19565;46.602;11.534;2023-05-07T06:48:11;16.60;99.90
33207;DHT22;19565;46.602;11.534;2023-05-07T06:50:41;16.70;99.90
33207;DHT22;19565;46.602;11.534;2023-05-07T06:53:09;16.80;99.90
33207;DHT22;19565;46.602;11.534;2023-05-07T06:55:38;16.80;99.90
33207;DHT22;19565;46.602;11.534;2023-05-07T06:58:06;16.80;99.90
33207;DHT22;19565;46.602;11.534;2023-05-07T07:00:34;16.70;99.90
33207;DHT22;19565;46.602;11.534;2023-05-07T07:03:02;16.70;99.90
33207;DHT22;19565;46.602;11.534;2023-05-07T07:05:30;16.80;99.90
33207;DHT22;19565;46.602;11.534;2023-05-07T07:07:59;16.80;99.90
33207;DHT22;19565;46.602;11.534;2023-05-07T07:10:27;16.80;99.90
33207;DHT22;19565;46.602;11.534;2023-05-07T07:12:55;16.90;99.90
33207;DHT22;19565;46.602;11.534;2023-05-07T07:15:23;16.90;99.90
33207;DHT22;19565;46.602;11.534;2023-05-07T07:17:52;16.80;99.90
33207;DHT22;19565;46.602;11.534;2023-05-07T07:20:20;16.90;99.90
33207;DHT22;19565;46.602;11.534;2023-05-07T07:22:48;17.00;99.90
33207;DHT22;19565;46.602;11.534;2023-05-07T07:25:18;17.00;99.90
33207;DHT22;19565;46.602;11.534;2023-05-07T07:27:46;17.00;99.90
33207;DHT22;19565;46.602;11.534;2023-05-07T07:30:14;17.00;99.90
33207;DHT22;19565;46.602;11.534;2023-05-07T07:32:42;17.10;99.90
33207;DHT22;19565;46.602;11.534;2023-05-07T07:35:10;17.10;99.90
33207;DHT22;19565;46.602;11.534;2023-05-07T07:37:38;17.10;99.90
33207;DHT22;19565;46.602;11.534;2023-05-07T07:40:07;17.10;99.90
33207;DHT22;19565;46.602;11.534;2023-05-07T07:42:37;17.10;99.90
33207;DHT22;19565;46.602;11.534;2023-05-07T07:45:07;17.10;99.90
33207;DHT22;19565;46.602;11.534;2023-05-07T07:47:35;17.20;99.90
33207;DHT22;19565;46.602;11.534;2023-05-07T07:50:04;17.20;99.90
33207;DHT22;19565;46.602;11.534;2023-05-07T07:52:32;17.30;99.90
33207;DHT22;19565;46.602;11.534;2023-05-07T07:55:00;17.40;99.90
33207;DHT22;19565;46.602;11.534;2023-05-07T07:57:28;17.50;99.90
33207;DHT22;19565;46.602;11.534;2023-05-07T07:59:58;17.50;99.90
33207;DHT22;19565;46.602;11.534;2023-05-07T08:02:26;17.60;99.90
33207;DHT22;19565;46.602;11.534;2023-05-07T08:04:54;17.70;99.90
33207;DHT22;19565;46.602;11.534;2023-05-07T08:07:22;17.70;99.90
33207;DHT22;19565;46.602;11.534;2023-05-07T08:09:50;17.80;99.90
33207;DHT22;19565;46.602;11.534;2023-05-07T08:12:21;17.80;99.90
33207;DHT22;19565;46.602;11.534;2023-05-07T08:14:49;17.90;99.90
33207;DHT22;19565;46.602;11.534;2023-05-07T08:17:19;17.90;99.90
33207;DHT22;19565;46.602;11.534;2023-05-07T08:19:49;18.00;99.90
33207;DHT22;19565;46.602;11.534;2023-05-07T08:22:17;18.00;99.90
33207;DHT22;19565;46.602;11.534;2023-05-07T08:24:45;18.10;99.90
33207;DHT22;19565;46.602;11.534;2023-05-07T08:27:13;18.00;98.90
33207;DHT22;19565;46.602;11.534;2023-05-07T08:29:41;18.10;99.30
33207;DHT22;19565;46.602;11.534;2023-05-07T08:32:09;18.10;99.30
33207;DHT22;19565;46.602;11.534;2023-05-07T08:34:38;18.20;99.40
33207;DHT22;19565;46.602;11.534;2023-05-07T08:37:06;18.30;99.70
33207;DHT22;19565;46.602;11.534;2023-05-07T08:39:34;18.40;99.80
33207;DHT22;19565;46.602;11.534;2023-05-07T08:42:04;18.40;98.80
33207;DHT22;19565;46.602;11.534;2023-05-07T08:44:34;18.50;99.90
33207;DHT22;19565;46.602;11.534;2023-05-07T08:47:02;18.50;99.50
33207;DHT22;19565;46.602;11.534;2023-05-07T08:49:31;18.60;99.40
33207;DHT22;19565;46.602;11.534;2023-05-07T08:52:02;18.70;99.40
33207;DHT22;19565;46.602;11.534;2023-05-07T08:54:31;18.70;98.50
33207;DHT22;19565;46.602;11.534;2023-05-07T08:56:59;18.80;97.40
33207;DHT22;19565;46.602;11.534;2023-05-07T08:59:27;18.80;97.20
33207;DHT22;19565;46.602;11.534;2023-05-07T09:01:55;18.90;97.70
33207;DHT22;19565;46.602;11.534;2023-05-07T09:04:23;19.00;97.50
33207;DHT22;19565;46.602;11.534;2023-05-07T09:06:51;19.10;97.10
33207;DHT22;19565;46.602;11.534;2023-05-07T09:09:21;19.20;97.60
33207;DHT22;19565;46.602;11.534;2023-05-07T09:11:56;19.20;95.80
33207;DHT22;19565;46.602;11.534;2023-05-07T09:14:25;19.30;95.10
33207;DHT22;19565;46.602;11.534;2023-05-07T09:16:53;19.30;94.60
33207;DHT22;19565;46.602;11.534;2023-05-07T09:19:24;19.30;94.40
33207;DHT22;19565;46.602;11.534;2023-05-07T09:21:58;19.40;94.20
33207;DHT22;19565;46.602;11.534;2023-05-07T09:24:28;19.50;93.80
33207;DHT22;19565;46.602;11.534;2023-05-07T09:27:01;19.50;92.60
33207;DHT22;19565;46.602;11.534;2023-05-07T09:29:29;19.60;92.10
33207;DHT22;19565;46.602;11.534;2023-05-07T09:32:02;19.60;92.90
33207;DHT22;19565;46.602;11.534;2023-05-07T09:34:30;19.60;92.70
33207;DHT22;19565;46.602;11.534;2023-05-07T09:36:59;19.70;92.80
33207;DHT22;19565;46.602;11.534;2023-05-07T09:39:39;19.70;92.70
33207;DHT22;19565;46.602;11.534;2023-05-07T09:42:08;19.80;92.90
33207;DHT22;19565;46.602;11.534;2023-05-07T09:44:37;19.90;92.50
33207;DHT22;19565;46.602;11.534;2023-05-07T09:47:06;19.90;92.80
33207;DHT22;19565;46.602;11.534;2023-05-07T09:49:35;20.00;92.60
33207;DHT22;19565;46.602;11.534;2023-05-07T09:52:05;20.10;92.30
33207;DHT22;19565;46.602;11.534;2023-05-07T09:54:36;20.20;91.30
33207;DHT22;19565;46.602;11.534;2023-05-07T09:57:07;20.20;90.60
33207;DHT22;19565;46.602;11.534;2023-05-07T09:59:37;20.30;90.50
33207;DHT22;19565;46.602;11.534;2023-05-07T10:02:05;20.30;90.70
33207;DHT22;19565;46.602;11.534;2023-05-07T10:04:34;20.40;91.20
33207;DHT22;19565;46.602;11.534;2023-05-07T10:07:03;20.50;90.50
33207;DHT22;19565;46.602;11.534;2023-05-07T10:09:32;20.60;90.90
33207;DHT22;19565;46.602;11.534;2023-05-07T10:12:00;20.60;90.30
33207;DHT22;19565;46.602;11.534;2023-05-07T10:14:29;20.70;88.20
33207;DHT22;19565;46.602;11.534;2023-05-07T10:16:57;20.80;88.40
33207;DHT22;19565;46.602;11.534;2023-05-07T10:19:28;20.80;89.30
33207;DHT22;19565;46.602;11.534;2023-05-07T10:22:02;20.90;89.80
33207;DHT22;19565;46.602;11.534;2023-05-07T10:24:33;21.10;90.60
33207;DHT22;19565;46.602;11.534;2023-05-07T10:27:05;21.20;90.40
33207;DHT22;19565;46.602;11.534;2023-05-07T10:29:39;21.30;89.10
33207;DHT22;19565;46.602;11.534;2023-05-07T10:32:25;21.30;88.50
33207;DHT22;19565;46.602;11.534;2023-05-07T10:35:00;21.40;87.20
33207;DHT22;19565;46.602;11.534;2023-05-07T10:37:30;21.40;87.00
33207;DHT22;19565;46.602;11.534;2023-05-07T10:39:58;21.50;85.80
33207;DHT22;19565;46.602;11.534;2023-05-07T10:42:26;21.50;83.70
33207;DHT22;19565;46.602;11.534;2023-05-07T10:44:56;21.50;83.90
33207;DHT22;19565;46.602;11.534;2023-05-07T10:47:24;21.60;84.20
33207;DHT22;19565;46.602;11.534;2023-05-07T10:50:20;21.60;82.40
33207;DHT22;19565;46.602;11.534;2023-05-07T10:53:22;21.60;82.40
33207;DHT22;19565;46.602;11.534;2023-05-07T10:56:25;21.60;82.40
33207;DHT22;19565;46.602;11.534;2023-05-07T10:59:01;21.60;82.10
33207;DHT22;19565;46.602;11.534;2023-05-07T11:01:57;21.70;80.90
33207;DHT22;19565;46.602;11.534;2023-05-07T11:04:30;21.70;81.40
33207;DHT22;19565;46.602;11.534;2023-05-07T11:07:32;21.70;81.70
33207;DHT22;19565;46.602;11.534;2023-05-07T11:10:04;21.70;80.90
33207;DHT22;19565;46.602;11.534;2023-05-07T11:12:52;21.80;79.70
33207;DHT22;19565;46.602;11.534;2023-05-07T11:15:40;21.80;80.80
33207;DHT22;19565;46.602;11.534;2023-05-07T11:18:14;21.80;79.00
33207;DHT22;19565;46.602;11.534;2023-05-07T11:20:51;21.80;80.00
33207;DHT22;19565;46.602;11.534;2023-05-07T11:23:57;21.80;79.60
33207;DHT22;19565;46.602;11.534;2023-05-07T11:26:29;21.80;79.60
33207;DHT22;19565;46.602;11.534;2023-05-07T11:28:58;21.80;80.90
33207;DHT22;19565;46.602;11.534;2023-05-07T11:31:27;21.80;81.90
33207;DHT22;19565;46.602;11.534;2023-05-07T11:33:58;21.80;83.10
33207;DHT22;19565;46.602;11.534;2023-05-07T11:36:31;21.80;83.00
33207;DHT22;19565;46.602;11.534;2023-05-07T11:38:59;21.80;82.50
33207;DHT22;19565;46.602;11.534;2023-05-07T11:41:36;21.80;82.90
33207;DHT22;19565;46.602;11.534;2023-05-07T11:44:04;21.80;83.60
33207;DHT22;19565;46.602;11.534;2023-05-07T11:46:33;21.80;83.30
33207;DHT22;19565;46.602;11.534;2023-05-07T11:49:03;21.80;83.40
33207;DHT22;19565;46.602;11.534;2023-05-07T11:51:31;21.90;83.50
33207;DHT22;19565;46.602;11.534;2023-05-07T11:53:59;21.90;82.90
33207;DHT22;19565;46.602;11.534;2023-05-07T11:56:27;21.90;83.10
33207;DHT22;19565;46.602;11.534;2023-05-07T11:58:55;21.90;82.90
33207;DHT22;19565;46.602;11.534;2023-05-07T12:01:23;21.90;84.60
33207;DHT22;19565;46.602;11.534;2023-05-07T12:03:51;21.90;83.50
33207;DHT22;19565;46.602;11.534;2023-05-07T12:06:20;22.00;84.20
33207;DHT22;19565;46.602;11.534;2023-05-07T12:08:48;22.00;84.50
33207;DHT22;19565;46.602;11.534;2023-05-07T12:11:22;22.00;84.90
33207;DHT22;19565;46.602;11.534;2023-05-07T12:13:51;22.00;84.60
33207;DHT22;19565;46.602;11.534;2023-05-07T12:16:19;22.00;85.10
33207;DHT22;19565;46.602;11.534;2023-05-07T12:18:48;22.00;84.90
33207;DHT22;19565;46.602;11.534;2023-05-07T12:21:20;22.00;84.90
33207;DHT22;19565;46.602;11.534;2023-05-07T12:23:49;22.00;85.10
33207;DHT22;19565;46.602;11.534;2023-05-07T12:26:19;22.00;85.20
33207;DHT22;19565;46.602;11.534;2023-05-07T12:28:47;22.10;84.80
33207;DHT22;19565;46.602;11.534;2023-05-07T12:31:15;22.10;85.20
33207;DHT22;19565;46.602;11.534;2023-05-07T12:33:45;22.10;84.30
33207;DHT22;19565;46.602;11.534;2023-05-07T12:36:13;22.00;83.90
33207;DHT22;19565;46.602;11.534;2023-05-07T12:38:43;22.00;83.20
33207;DHT22;19565;46.602;11.534;2023-05-07T12:41:11;22.00;82.60
33207;DHT22;19565;46.602;11.534;2023-05-07T12:43:40;22.00;81.30
33207;DHT22;19565;46.602;11.534;2023-05-07T12:46:12;22.00;79.70
33207;DHT22;19565;46.602;11.534;2023-05-07T12:48:44;22.00;75.50
33207;DHT22;19565;46.602;11.534;2023-05-07T12:51:13;22.10;74.80
33207;DHT22;19565;46.602;11.534;2023-05-07T12:53:43;22.10;74.20
33207;DHT22;19565;46.602;11.534;2023-05-07T12:56:11;22.10;74.40
33207;DHT22;19565;46.602;11.534;2023-05-07T12:58:40;22.20;75.30
33207;DHT22;19565;46.602;11.534;2023-05-07T13:01:08;22.30;75.80
33207;DHT22;19565;46.602;11.534;2023-05-07T13:03:42;22.30;77.60
33207;DHT22;19565;46.602;11.534;2023-05-07T13:06:15;22.30;77.50
33207;DHT22;19565;46.602;11.534;2023-05-07T13:08:45;22.40;77.30
33207;DHT22;19565;46.602;11.534;2023-05-07T13:11:13;22.30;78.00
33207;DHT22;19565;46.602;11.534;2023-05-07T13:13:41;22.40;78.20
33207;DHT22;19565;46.602;11.534;2023-05-07T13:16:10;22.40;77.20
33207;DHT22;19565;46.602;11.534;2023-05-07T13:18:39;22.40;78.30
33207;DHT22;19565;46.602;11.534;2023-05-07T13:21:10;22.40;78.10
33207;DHT22;19565;46.602;11.534;2023-05-07T13:23:40;22.50;78.50
33207;DHT22;19565;46.602;11.534;2023-05-07T13:26:09;22.60;78.50
33207;DHT22;19565;46.602;11.534;2023-05-07T13:28:52;22.70;77.60
33207;DHT22;19565;46.602;11.534;2023-05-07T13:31:20;22.90;76.40
33207;DHT22;19565;46.602;11.534;2023-05-07T13:33:48;23.00;74.70
33207;DHT22;19565;46.602;11.534;2023-05-07T13:36:16;23.10;69.60
33207;DHT22;19565;46.602;11.534;2023-05-07T13:38:44;23.20;69.80
33207;DHT22;19565;46.602;11.534;2023-05-07T13:41:14;23.30;66.50
33207;DHT22;19565;46.602;11.534;2023-05-07T13:43:42;23.40;64.50
33207;DHT22;19565;46.602;11.534;2023-05-07T13:46:10;23.50;61.90
33207;DHT22;19565;46.602;11.534;2023-05-07T13:48:38;23.50;61.70
33207;DHT22;19565;46.602;11.534;2023-05-07T13:51:06;23.50;59.50
33207;DHT22;19565;46.602;11.534;2023-05-07T13:53:34;23.50;59.30
33207;DHT22;19565;46.602;11.534;2023-05-07T13:56:03;23.50;59.50
33207;DHT22;19565;46.602;11.534;2023-05-07T13:58:32;23.50;59.30
33207;DHT22;19565;46.602;11.534;2023-05-07T14:01:05;23.40;59.70
33207;DHT22;19565;46.602;11.534;2023-05-07T14:03:33;23.40;60.00
33207;DHT22;19565;46.602;11.534;2023-05-07T14:06:04;23.40;60.70
33207;DHT22;19565;46.602;11.534;2023-05-07T14:08:32;23.40;60.40
33207;DHT22;19565;46.602;11.534;2023-05-07T14:11:00;23.40;62.80
33207;DHT22;19565;46.602;11.534;2023-05-07T14:13:28;23.30;65.00
33207;DHT22;19565;46.602;11.534;2023-05-07T14:15:58;23.30;65.70
33207;DHT22;19565;46.602;11.534;2023-05-07T14:18:27;23.40;68.00
33207;DHT22;19565;46.602;11.534;2023-05-07T14:20:55;23.30;78.90
33207;DHT22;19565;46.602;11.534;2023-05-07T14:23:23;23.10;90.10
33207;DHT22;19565;46.602;11.534;2023-05-07T14:25:53;22.80;92.90
33207;DHT22;19565;46.602;11.534;2023-05-07T14:28:21;22.60;92.60
33207;DHT22;19565;46.602;11.534;2023-05-07T14:30:49;22.30;92.00
33207;DHT22;19565;46.602;11.534;2023-05-07T14:33:19;22.00;92.50
33207;DHT22;19565;46.602;11.534;2023-05-07T14:35:47;22.00;94.80
33207;DHT22;19565;46.602;11.534;2023-05-07T14:38:16;21.80;96.60
33207;DHT22;19565;46.602;11.534;2023-05-07T14:40:44;21.40;96.70
33207;DHT22;19565;46.602;11.534;2023-05-07T14:43:12;21.00;97.90
33207;DHT22;19565;46.602;11.534;2023-05-07T14:45:41;20.80;99.20
33207;DHT22;19565;46.602;11.534;2023-05-07T14:48:09;20.90;99.90
33207;DHT22;19565;46.602;11.534;2023-05-07T14:50:43;20.90;99.90
33207;DHT22;19565;46.602;11.534;2023-05-07T14:53:11;20.80;99.90
33207;DHT22;19565;46.602;11.534;2023-05-07T14:55:39;20.70;99.90
33207;DHT22;19565;46.602;11.534;2023-05-07T14:58:07;20.60;99.90
33207;DHT22;19565;46.602;11.534;2023-05-07T15:00:35;20.50;99.90
33207;DHT22;19565;46.602;11.534;2023-05-07T15:03:06;20.50;99.90
33207;DHT22;19565;46.602;11.534;2023-05-07T15:05:35;20.40;99.90
33207;DHT22;19565;46.602;11.534;2023-05-07T15:08:05;20.50;99.90
33207;DHT22;19565;46.602;11.534;2023-05-07T15:10:35;20.60;99.90
33207;DHT22;19565;46.602;11.534;2023-05-07T15:13:07;20.70;99.90
33207;DHT22;19565;46.602;11.534;2023-05-07T15:15:40;20.80;99.90
33207;DHT22;19565;46.602;11.534;2023-05-07T15:18:09;20.80;99.90
33207;DHT22;19565;46.602;11.534;2023-05-07T15:20:37;21.10;99.90
33207;DHT22;19565;46.602;11.534;2023-05-07T15:23:07;21.90;99.90
33207;DHT22;19565;46.602;11.534;2023-05-07T15:25:39;23.00;99.90
33207;DHT22;19565;46.602;11.534;2023-05-07T15:28:07;23.70;99.90
33207;DHT22;19565;46.602;11.534;2023-05-07T15:30:35;24.20;98.70